»·PEaware :: N707CP KBFI-KEUG

N707CP :: KBFI-KEUG

FLIGHT INFORMATION

Flight Status: Arrived
Operator: Privately registered:
United States
More flights under this callsign
Pilot: Chase W. (8260)
Aircraft: MITSUBISHI MU-2 MARQUISE
(MU2)
More flights by this aircraft type
Origin: KBFI Boeing Field/King Co Intl
United States
Destination: KEUG Mahlon Sweet
United States
More flights between these airports :: More routes between these airports
Route: +NRVNA1 ALDER V495 BTG V23 EUG
File this flight plan on PilotEdge
Remarks:
Altitude:
(Current/Filed)
24,000ft
Speed:
(Current/Filed)
275kts
Departed: 21-Dec-17 10:38 AM
Arrived: 21-Dec-17 11:41 AM
Distance/Time
Traveled:
208nm/1:03
Distance/Time
To Go:
Arrived

Flight Plot

Page will automatically refresh every two minutes.

Flight plan parsing failed; only flown route is shown


Map Options




Map Legend


Flown Route
Filed Route
Departure Airport
Arrival Airport
Navaid (VOR, NDB)
Fix

Horizontal Profiles

Position Reports

Time Latitude Longitude Heading Altitude Ground
Speed
21-Dec-17 10:21 47.526801 -122.302207 154 24ft 0kts
21-Dec-17 10:22 47.526801 -122.302207 154 24ft 0kts
21-Dec-17 10:23 47.526801 -122.302207 154 24ft 0kts
21-Dec-17 10:24 47.526801 -122.302207 154 24ft 0kts
21-Dec-17 10:25 47.526801 -122.302207 154 24ft 0kts
21-Dec-17 10:26 47.526800 -122.302206 152 24ft 0kts
21-Dec-17 10:27 47.526800 -122.302206 154 24ft 0kts
21-Dec-17 10:28 47.526800 -122.302206 154 24ft 0kts
21-Dec-17 10:29 47.526799 -122.302206 154 24ft 0kts
21-Dec-17 10:30 47.526799 -122.302206 154 24ft 0kts
21-Dec-17 10:31 47.526800 -122.302206 154 24ft 0kts
21-Dec-17 10:32 47.526800 -122.302206 154 24ft 0kts
21-Dec-17 10:33 47.526800 -122.302206 154 24ft 0kts
21-Dec-17 10:34 47.526800 -122.302206 154 24ft 0kts
21-Dec-17 10:35 47.526799 -122.302206 154 24ft 0kts
21-Dec-17 10:36 47.526800 -122.302206 154 24ft 0kts
21-Dec-17 10:37 47.526799 -122.302206 154 24ft 0kts
21-Dec-17 10:38 47.526443 -122.301728 63 24ft 3kts
21-Dec-17 10:39 47.526566 -122.301445 53 24ft 6kts
21-Dec-17 10:40 47.530250 -122.304197 330 24ft 29kts
21-Dec-17 10:41 47.535053 -122.308258 331 24ft 22kts
21-Dec-17 10:42 47.539210 -122.311771 329 24ft 19kts
21-Dec-17 10:43 47.540215 -122.311030 148 24ft 5kts
21-Dec-17 10:44 47.517340 -122.291120 150 461ft 185kts
21-Dec-17 10:45 47.485248 -122.264189 150 1915ft 194kts
21-Dec-17 10:46 47.453435 -122.237291 150 3424ft 192kts
21-Dec-17 10:47 47.414614 -122.219065 193 4155ft 225kts
21-Dec-17 10:48 47.362028 -122.241532 196 5591ft 222kts
21-Dec-17 10:49 47.311177 -122.263448 196 5976ft 257kts
21-Dec-17 10:50 47.258010 -122.284315 192 6750ft 272kts
21-Dec-17 10:51 47.190529 -122.304757 195 8275ft 272kts
21-Dec-17 10:52 47.119159 -122.326180 196 9671ft 277kts
21-Dec-17 10:53 47.045863 -122.347957 197 11038ft 281kts
21-Dec-17 10:54 46.971149 -122.370189 197 12297ft 286kts
21-Dec-17 10:55 46.895028 -122.392722 196 13391ft 294kts
21-Dec-17 10:56 46.821079 -122.414248 194 14635ft 294kts
21-Dec-17 10:57 46.743810 -122.427304 192 16344ft 288kts
21-Dec-17 10:58 46.667258 -122.440130 193 18060ft 289kts
21-Dec-17 10:59 46.591828 -122.452747 194 19745ft 291kts
21-Dec-17 11:00 46.531366 -122.462841 195 21084ft 294kts
21-Dec-17 11:01 46.457760 -122.475093 195 22698ft 298kts
21-Dec-17 11:02 46.382804 -122.487604 196 24015ft 313kts
21-Dec-17 11:03 46.302766 -122.500913 195 24521ft 342kts
21-Dec-17 11:04 46.219864 -122.514540 194 24518ft 360kts
21-Dec-17 11:05 46.136315 -122.528237 194 24515ft 365kts
21-Dec-17 11:06 46.051094 -122.542199 194 24514ft 366kts
21-Dec-17 11:07 45.974088 -122.554784 194 24509ft 366kts
21-Dec-17 11:08 45.899829 -122.566895 194 24505ft 367kts
21-Dec-17 11:09 45.828376 -122.578512 194 24495ft 366kts
21-Dec-17 11:10 45.754297 -122.590498 194 24496ft 366kts
21-Dec-17 11:11 45.693605 -122.612990 205 24498ft 357kts
21-Dec-17 11:12 45.608574 -122.647086 204 24494ft 357kts
21-Dec-17 11:13 45.535078 -122.676281 203 24442ft 360kts
21-Dec-17 11:14 45.468580 -122.702614 203 24387ft 361kts
21-Dec-17 11:15 45.369493 -122.741749 203 24195ft 364kts
21-Dec-17 11:16 45.295725 -122.770771 203 24043ft 364kts
21-Dec-17 11:17 45.204762 -122.806451 203 23997ft 363kts
21-Dec-17 11:18 45.123345 -122.838135 203 23810ft 348kts
21-Dec-17 11:19 45.059960 -122.863237 202 22399ft 353kts
21-Dec-17 11:20 44.995065 -122.888569 200 21141ft 352kts
21-Dec-17 11:21 44.930975 -122.913376 198 20106ft 347kts
21-Dec-17 11:22 44.867576 -122.937764 198 19152ft 335kts
21-Dec-17 11:23 44.806530 -122.961406 198 17439ft 326kts
21-Dec-17 11:24 44.744911 -122.985179 197 15732ft 315kts
21-Dec-17 11:25 44.678371 -123.010801 197 13865ft 303kts
21-Dec-17 11:26 44.638877 -123.083849 273 11682ft 274kts
21-Dec-17 11:27 44.640729 -123.186073 274 9430ft 268kts
21-Dec-17 11:28 44.636302 -123.284176 232 7287ft 266kts
21-Dec-17 11:29 44.576969 -123.298925 177 5607ft 255kts
21-Dec-17 11:30 44.539769 -123.296458 177 4619ft 249kts
21-Dec-17 11:31 44.499152 -123.293183 170 4506ft 229kts
21-Dec-17 11:32 44.471402 -123.275605 148 4523ft 221kts
21-Dec-17 11:33 44.445693 -123.251938 146 4534ft 222kts
21-Dec-17 11:34 44.423083 -123.230452 146 4542ft 231kts
21-Dec-17 11:35 44.394603 -123.222774 179 4524ft 236kts
21-Dec-17 11:36 44.361867 -123.222525 180 4507ft 203kts
21-Dec-17 11:37 44.328973 -123.222161 179 4159ft 179kts
21-Dec-17 11:38 44.302802 -123.221786 179 3662ft 163kts
21-Dec-17 11:39 44.277667 -123.221398 179 3223ft 155kts
21-Dec-17 11:40 44.256513 -123.221063 179 2815ft 145kts
21-Dec-17 11:41 44.230648 -123.220650 179 2283ft 128kts
21-Dec-17 11:42 44.207307 -123.220285 179 1744ft 124kts
21-Dec-17 11:43 44.181040 -123.219826 178 1066ft 121kts
21-Dec-17 11:44 44.163650 -123.219737 179 941ft 115kts
21-Dec-17 11:45 44.146313 -123.219306 178 634ft 105kts
21-Dec-17 11:46 44.130181 -123.219090 178 378ft 88kts
21-Dec-17 11:47 44.125317 -123.217753 147 378ft 17kts

Navigation Log

Ident Type
Flight plan parsing failed, navigation log unavailable